.
WxDataArchive / Data Records for 2013-08-11
2013-08-10 August 2013 2013-08-12

Data Records for Sunday, 11 August 2013

Time	Temp	Chill	HIndex	Humid	Dewpt	 Wind 	HiWind	WindDir	Rain 	Barom 
-----	----	-----	------	-----	-----	------	------	-------	-----	----- 
00:00	66.3	66.3	66.3	88	62.6	0	1	68	0.00	30.081 
00:05	66.1	66.1	66.1	88	62.4	0	1	68	0.00	30.081 
00:10	66.0	66.0	66.0	88	62.3	0	1	68	0.00	30.081 
00:15	65.8	65.8	65.8	88	62.1	0	0	---	0.00	30.080 
00:20	65.6	65.6	65.6	88	61.9	0	0	---	0.00	30.080 
00:25	65.5	65.5	65.5	89	62.2	0	0	---	0.00	30.080 
00:30	65.3	65.3	65.3	89	62.0	0	0	---	0.00	30.082 
00:35	65.2	65.2	65.2	89	61.9	0	0	---	0.00	30.082 
00:40	65.0	65.0	65.0	89	61.7	0	0	---	0.00	30.082 
00:45	65.0	65.0	65.0	90	62.0	0	0	---	0.00	30.088 
00:50	64.8	64.8	64.8	90	61.8	0	0	---	0.00	30.088 
00:55	64.7	64.7	64.7	90	61.7	0	0	---	0.00	30.088 
01:00	64.7	64.7	64.7	90	61.7	0	0	---	0.00	30.087 
01:05	64.5	64.5	64.5	91	61.8	0	0	---	0.00	30.087 
01:10	64.3	64.3	64.3	91	61.6	0	0	---	0.00	30.087 
01:15	64.3	64.3	64.3	91	61.6	0	0	---	0.00	30.086 
01:20	64.2	64.2	64.2	91	61.5	0	0	---	0.00	30.086 
01:25	64.0	64.0	64.0	92	61.6	0	0	---	0.00	30.086 
01:30	63.9	63.9	63.9	92	61.5	0	0	---	0.00	30.084 
01:35	63.9	63.9	63.9	92	61.5	0	0	---	0.00	30.084 
01:40	63.7	63.7	63.7	92	61.3	0	0	---	0.00	30.084 
01:45	63.5	63.5	63.5	92	61.1	0	0	---	0.00	30.087 
01:50	63.4	63.4	63.4	92	61.0	0	0	---	0.00	30.087 
01:55	63.4	63.4	63.4	92	61.0	0	0	---	0.00	30.087 
02:00	63.2	63.2	63.2	92	60.8	0	0	---	0.00	30.080 
02:05	63.1	63.1	63.1	92	60.7	0	0	---	0.00	30.080 
02:10	62.9	62.9	62.9	93	60.8	0	0	---	0.00	30.080 
02:15	62.7	62.7	62.7	93	60.6	0	0	---	0.00	30.079 
02:20	62.7	62.7	62.7	93	60.6	0	0	---	0.00	30.079 
02:25	62.6	62.6	62.6	93	60.5	0	0	---	0.00	30.079 
02:30	62.6	62.6	62.6	93	60.5	0	0	---	0.00	30.078 
02:35	62.4	62.4	62.4	93	60.3	0	0	---	0.00	30.078 
02:40	62.4	62.4	62.4	93	60.3	0	0	---	0.00	30.078 
02:45	62.3	62.3	62.3	93	60.2	0	0	---	0.00	30.079 
02:50	62.1	62.1	62.1	93	60.0	0	0	---	0.00	30.079 
02:55	62.0	62.0	62.0	93	59.9	0	0	---	0.00	30.079 
03:00	61.8	61.8	61.8	93	59.8	0	0	---	0.00	30.080 
03:05	61.8	61.8	61.8	93	59.8	0	0	---	0.00	30.080 
03:10	61.6	61.6	61.6	94	59.9	0	0	---	0.00	30.080 
03:15	61.6	61.6	61.6	94	59.9	0	0	---	0.00	30.080 
03:20	61.5	61.5	61.5	94	59.8	0	0	---	0.00	30.080 
03:25	61.3	61.3	61.3	94	59.6	0	0	---	0.00	30.080 
03:30	61.3	61.3	61.3	94	59.6	0	0	---	0.00	30.079 
03:35	61.2	61.2	61.2	94	59.5	0	0	---	0.00	30.079 
03:40	61.0	61.0	61.0	94	59.3	0	0	---	0.00	30.079 
03:45	60.9	60.9	60.9	94	59.2	0	0	---	0.00	30.078 
03:50	60.7	60.7	60.7	94	59.0	0	0	---	0.00	30.078 
03:55	60.7	60.7	60.7	94	59.0	0	0	---	0.00	30.078 
04:00	60.5	60.5	60.5	94	58.8	0	0	---	0.00	30.077 
04:05	60.5	60.5	60.5	94	58.8	0	0	---	0.00	30.077 
04:10	60.5	60.5	60.5	94	58.8	0	0	---	0.00	30.077 
04:15	60.5	60.5	60.5	94	58.8	0	0	---	0.00	30.079 
04:20	60.5	60.5	60.5	94	58.8	0	0	---	0.00	30.079 
04:25	60.5	60.5	60.5	94	58.8	0	0	---	0.00	30.079 
04:30	60.5	60.5	60.5	95	59.1	0	0	---	0.00	30.080 
04:35	60.4	60.4	60.4	94	58.7	0	0	---	0.00	30.080 
04:40	60.4	60.4	60.4	95	59.0	0	0	---	0.00	30.080 
04:45	60.4	60.4	60.4	95	59.0	0	0	---	0.00	30.081 
04:50	60.4	60.4	60.4	95	59.0	0	0	---	0.00	30.081 
04:55	60.2	60.2	60.2	95	58.8	0	0	---	0.00	30.081 
05:00	60.2	60.2	60.2	95	58.8	0	0	---	0.00	30.080 
05:05	60.2	60.2	60.2	95	58.8	0	0	---	0.00	30.080 
05:10	60.1	60.1	60.1	95	58.7	0	0	---	0.00	30.080 
05:15	60.1	60.1	60.1	95	58.7	0	0	---	0.00	30.082 
05:20	60.1	60.1	60.1	95	58.7	0	0	---	0.00	30.082 
05:25	60.1	60.1	60.1	95	58.7	0	0	---	0.00	30.082 
05:30	60.2	60.2	60.2	95	58.8	0	0	---	0.00	30.082 
05:35	60.4	60.4	60.4	95	59.0	0	0	---	0.00	30.082 
05:40	60.5	60.5	60.5	95	59.1	0	0	---	0.00	30.082 
05:45	60.7	60.7	60.7	95	59.3	0	0	---	0.00	30.079 
05:50	60.9	60.9	60.9	95	59.5	0	0	---	0.00	30.079 
05:55	61.0	61.0	61.0	95	59.6	0	0	---	0.00	30.079 
06:00	61.0	61.0	61.0	95	59.6	0	0	---	0.00	30.081 
06:05	61.0	61.0	61.0	95	59.6	0	0	---	0.00	30.081 
06:10	61.0	61.0	61.0	95	59.6	0	0	---	0.00	30.081 
06:15	60.9	60.9	60.9	95	59.5	0	0	---	0.00	30.085 
06:20	60.7	60.7	60.7	95	59.3	0	0	---	0.00	30.085 
06:25	60.5	60.5	60.5	95	59.1	0	0	---	0.00	30.085 
06:30	60.5	60.5	60.5	95	59.1	0	0	---	0.00	30.091 
06:35	60.5	60.5	60.5	95	59.1	0	0	---	0.00	30.091 
06:40	60.4	60.4	60.4	95	59.0	0	0	---	0.00	30.091 
06:45	60.4	60.4	60.4	95	59.0	0	0	---	0.00	30.093 
06:50	60.2	60.2	60.2	95	58.8	0	0	---	0.00	30.093 
06:55	60.2	60.2	60.2	95	58.8	0	0	---	0.00	30.093 
07:00	60.1	60.1	60.1	95	58.7	0	0	---	0.00	30.095 
07:05	60.1	60.1	60.1	96	59.0	0	0	---	0.00	30.095 
07:10	60.1	60.1	60.1	96	59.0	0	0	---	0.00	30.095 
07:15	60.1	60.1	60.1	96	59.0	0	0	---	0.00	30.099 
07:20	60.1	60.1	60.1	96	59.0	0	0	---	0.00	30.099 
07:25	60.2	60.2	60.2	96	59.1	0	0	---	0.00	30.099 
07:30	60.4	60.4	60.4	96	59.3	0	0	---	0.00	30.101 
07:35	60.5	60.5	60.5	96	59.4	0	0	---	0.00	30.101 
07:40	60.7	60.7	60.7	96	59.6	0	0	---	0.00	30.101 
07:45	60.9	60.9	60.9	96	59.7	0	0	---	0.00	30.099 
07:50	61.2	61.2	61.2	96	60.0	0	0	---	0.00	30.099 
07:55	61.6	61.6	61.6	96	60.4	0	1	68	0.00	30.099 
08:00	62.0	62.0	62.0	96	60.8	0	0	---	0.00	30.093 
08:05	62.1	62.1	62.1	96	60.9	0	1	68	0.00	30.093 
08:10	62.3	62.3	62.3	96	61.1	0	2	68	0.00	30.093 
08:15	62.3	62.3	62.3	95	60.8	1	4	68	0.00	30.095 
08:20	62.4	62.4	62.4	94	60.6	1	4	68	0.00	30.095 
08:25	62.9	62.9	62.9	93	60.8	1	3	68	0.00	30.095 
08:30	63.4	63.4	63.4	91	60.7	2	4	68	0.00	30.091 
08:35	63.5	63.5	63.5	90	60.5	1	4	90	0.00	30.091 
08:40	64.0	64.0	64.0	88	60.4	1	5	112	0.00	30.091 
08:45	64.5	64.5	64.5	87	60.5	1	5	90	0.00	30.089 
08:50	65.2	65.2	65.2	86	60.9	1	3	90	0.00	30.089 
08:55	65.5	65.5	65.5	84	60.5	1	4	68	0.00	30.089 
09:00	66.0	66.0	66.0	82	60.3	1	4	112	0.00	30.095 
09:05	66.4	66.4	66.4	81	60.4	1	2	112	0.00	30.095 
09:10	67.1	67.1	67.1	80	60.7	0	2	112	0.00	30.095 
09:15	67.6	67.6	67.6	77	60.1	1	4	112	0.00	30.099 
09:20	67.8	67.8	67.8	77	60.3	1	3	112	0.00	30.099 
09:25	68.1	68.1	68.1	76	60.2	2	4	112	0.00	30.099 
09:30	68.4	68.4	68.4	76	60.5	1	3	112	0.00	30.097 
09:35	68.6	68.6	68.6	76	60.7	1	4	112	0.00	30.097 
09:40	69.1	69.1	69.1	77	61.6	0	1	112	0.00	30.097 
09:45	69.6	69.6	69.6	76	61.7	0	1	112	0.00	30.098 
09:50	70.1	70.1	70.1	73	61.0	0	3	112	0.00	30.098 
09:55	70.8	70.8	70.8	74	62.1	0	2	112	0.00	30.098 
10:00	71.3	71.3	71.3	73	62.2	0	2	112	0.00	30.100 
10:05	71.5	71.5	71.5	73	62.4	0	1	112	0.00	30.100 
10:10	71.5	71.5	71.5	72	62.0	0	2	112	0.00	30.100 
10:15	71.8	71.8	71.8	71	61.9	0	1	112	0.00	30.105 
10:20	72.1	72.1	72.1	71	62.2	0	1	112	0.00	30.105 
10:25	72.8	72.8	72.8	70	62.4	0	1	112	0.00	30.105 
10:30	73.0	73.0	73.0	69	62.2	0	1	112	0.00	30.101 
10:35	73.2	73.2	73.2	68	62.0	0	0	---	0.00	30.101 
10:40	73.5	73.5	73.5	67	61.9	0	3	112	0.00	30.101 
10:45	74.2	74.2	74.2	66	62.1	0	1	112	0.00	30.095 
10:50	74.7	74.7	74.7	65	62.1	1	3	112	0.00	30.095 
10:55	75.4	75.4	77.4	65	62.8	0	3	112	0.00	30.095 
11:00	75.4	75.4	77.5	62	61.5	1	3	112	0.00	30.096 
11:05	75.8	75.8	77.8	63	62.3	1	3	112	0.00	30.096 
11:10	76.0	76.0	77.9	63	62.5	1	2	112	0.00	30.096 
11:15	76.0	76.0	78.0	60	61.1	1	3	112	0.00	30.095 
11:20	76.5	76.5	78.4	60	61.6	0	2	112	0.00	30.095 
11:25	77.0	77.0	78.8	62	63.0	0	1	112	0.00	30.095 
11:30	77.2	77.2	78.9	59	61.7	1	5	90	0.00	30.096 
11:35	77.4	77.4	79.1	60	62.4	0	1	90	0.00	30.096 
11:40	77.4	77.4	79.1	61	62.9	0	2	90	0.00	30.096 
11:45	76.8	76.8	78.6	57	60.4	0	2	90	0.00	30.096 
11:50	77.0	77.0	78.8	60	62.0	1	2	90	0.00	30.096 
11:55	77.6	77.6	79.2	57	61.1	0	2	90	0.00	30.096 
12:00	77.9	77.9	79.5	58	61.9	0	1	90	0.00	30.093 
12:05	78.3	78.3	79.7	55	60.8	1	4	90	0.00	30.093 
12:10	78.3	78.3	79.8	56	61.3	1	4	90	0.00	30.093 
12:15	78.5	78.5	79.9	56	61.5	1	4	90	0.00	30.087 
12:20	78.5	78.5	80.0	57	62.0	1	4	90	0.00	30.087 
12:25	78.8	78.8	79.9	52	59.7	1	2	90	0.00	30.087 
12:30	79.2	79.2	80.2	51	59.5	0	1	90	0.00	30.079 
12:35	79.4	79.4	80.4	51	59.7	1	4	90	0.00	30.079 
12:40	79.8	79.8	80.7	51	60.0	1	3	90	0.00	30.079 
12:45	79.9	79.9	81.0	53	61.2	1	4	112	0.00	30.079 
12:50	79.9	79.9	81.1	54	61.7	1	4	112	0.00	30.079 
12:55	79.6	79.6	80.6	52	60.4	0	2	112	0.00	30.079 
13:00	79.2	79.2	80.4	53	60.6	0	1	112	0.00	30.079 
13:05	78.8	78.8	79.9	52	59.7	0	2	112	0.00	30.079 
13:10	78.5	78.5	79.9	55	61.0	0	1	112	0.00	30.079 
13:15	77.9	77.9	79.4	55	60.4	0	1	112	0.00	30.083 
13:20	77.6	77.6	79.2	56	60.6	0	0	---	0.00	30.083 
13:25	77.7	77.7	79.2	55	60.2	1	3	112	0.00	30.083 
13:30	78.1	78.1	79.5	53	59.6	0	1	112	0.00	30.088 
13:35	78.6	78.6	79.9	54	60.5	0	3	112	0.00	30.088 
13:40	79.0	79.0	80.1	52	59.8	0	2	112	0.00	30.088 
13:45	78.8	78.8	80.0	53	60.2	0	3	112	0.00	30.081 
13:50	79.0	79.0	80.1	52	59.8	0	2	112	0.00	30.081 
13:55	79.6	79.6	80.5	51	59.9	1	3	112	0.00	30.081 
14:00	79.8	79.8	80.8	52	60.6	0	2	112	0.00	30.078 
14:05	79.2	79.2	80.1	50	58.9	0	3	112	0.00	30.078 
14:10	78.8	78.8	80.1	54	60.7	0	3	112	0.00	30.078 
14:15	79.4	79.4	80.8	56	62.3	0	2	112	0.00	30.076 
14:20	79.9	79.9	80.4	46	57.2	1	3	112	0.00	30.076 
14:25	79.9	79.9	80.4	46	57.2	0	1	112	0.00	30.076 
14:30	80.3	80.3	80.7	46	57.6	1	4	112	0.00	30.066 
14:35	80.7	80.7	81.0	46	58.0	1	3	248	0.00	30.066 
14:40	80.7	80.7	81.1	47	58.6	1	3	248	0.00	30.066 
14:45	80.5	80.5	80.8	46	57.8	1	4	315	0.00	30.065 
14:50	80.7	80.7	80.8	44	56.7	2	4	292	0.00	30.065 
14:55	80.7	80.7	80.7	43	56.1	1	4	292	0.00	30.065 
15:00	80.9	80.9	80.9	43	56.3	2	5	270	0.00	30.067 
15:05	81.2	81.2	81.2	44	57.2	1	3	270	0.00	30.067 
15:10	81.2	81.2	81.1	43	56.5	2	4	270	0.00	30.067 
15:15	80.9	80.9	81.1	45	57.5	2	4	338	0.00	30.065 
15:20	80.1	80.1	80.4	45	56.8	2	5	270	0.00	30.065 
15:25	79.9	79.9	80.5	48	58.4	1	3	270	0.00	30.065 
15:30	80.7	80.7	81.1	47	58.6	2	4	270	0.00	30.066 
15:35	80.9	80.9	81.2	46	58.2	2	4	270	0.00	30.066 
15:40	81.1	81.1	81.1	44	57.1	2	4	270	0.00	30.066 
15:45	81.2	81.2	81.2	44	57.2	2	4	292	0.00	30.061 
15:50	80.5	80.5	80.8	46	57.8	1	2	292	0.00	30.061 
15:55	79.9	79.9	80.6	49	59.0	1	3	292	0.00	30.061 
16:00	80.3	80.3	80.8	47	58.2	2	5	315	0.00	30.054 
16:05	80.7	80.7	81.1	47	58.6	2	3	315	0.00	30.054 
16:10	81.1	81.1	81.5	47	58.9	1	3	315	0.00	30.054 
16:15	80.9	80.9	81.3	47	58.8	1	4	292	0.00	30.054 
16:20	80.9	80.9	81.3	47	58.8	1	3	292	0.00	30.054 
16:25	81.1	81.1	81.6	48	59.5	2	5	270	0.00	30.054 
16:30	81.4	81.4	81.8	47	59.2	1	4	270	0.00	30.048 
16:35	81.4	81.4	81.6	46	58.6	1	4	270	0.00	30.048 
16:40	81.4	81.4	81.8	47	59.2	2	4	270	0.00	30.048 
16:45	81.1	81.1	81.5	47	58.9	2	4	315	0.00	30.046 
16:50	81.2	81.2	81.7	48	59.6	1	2	315	0.00	30.046 
16:55	81.8	81.8	82.1	47	59.6	1	4	315	0.00	30.046 
17:00	81.8	81.8	82.3	48	60.2	2	3	270	0.00	30.042 
17:05	81.8	81.8	82.1	47	59.6	1	3	270	0.00	30.042 
17:10	81.4	81.4	81.9	48	59.8	1	3	292	0.00	30.042 
17:15	81.1	81.1	81.8	50	60.7	1	3	292	0.00	30.044 
17:20	80.7	80.7	81.4	50	60.3	1	4	292	0.00	30.044 
17:25	80.5	80.5	81.5	52	61.2	1	5	315	0.00	30.044 
17:30	80.3	80.3	81.3	52	61.0	1	3	315	0.00	30.045 
17:35	80.1	80.1	80.9	50	59.8	2	3	315	0.00	30.045 
17:40	79.8	79.8	80.6	50	59.5	1	2	315	0.00	30.045 
17:45	79.4	79.4	80.3	50	59.1	0	3	315	0.00	30.037 
17:50	79.8	79.8	80.7	51	60.0	1	3	315	0.00	30.037 
17:55	80.1	80.1	80.9	50	59.8	1	3	338	0.00	30.037 
18:00	80.1	80.1	80.9	50	59.8	1	4	338	0.00	30.035 
18:05	80.3	80.3	81.0	49	59.4	1	4	315	0.00	30.035 
18:10	80.3	80.3	81.1	50	59.9	1	4	315	0.00	30.035 
18:15	80.3	80.3	81.0	49	59.4	1	3	315	0.00	30.034 
18:20	80.1	80.1	80.9	50	59.8	0	2	315	0.00	30.034 
18:25	79.8	79.8	80.5	49	58.9	1	3	315	0.00	30.034 
18:30	79.6	79.6	80.5	51	59.9	0	2	315	0.00	30.034 
18:35	79.4	79.4	80.3	50	59.1	1	3	315	0.00	30.034 
18:40	79.0	79.0	80.0	50	58.7	1	2	315	0.00	30.034 
18:45	79.0	79.0	80.1	52	59.8	0	2	315	0.00	30.036 
18:50	78.6	78.6	79.7	51	58.9	1	2	315	0.00	30.036 
18:55	78.6	78.6	79.8	52	59.5	1	3	292	0.00	30.036 
19:00	78.5	78.5	79.7	52	59.4	1	4	292	0.00	30.034 
19:05	78.5	78.5	79.8	53	59.9	0	1	292	0.00	30.034 
19:10	78.3	78.3	79.6	53	59.7	0	3	292	0.00	30.034 
19:15	78.1	78.1	79.5	53	59.6	0	2	292	0.00	30.033 
19:20	77.7	77.7	79.2	54	59.7	0	2	292	0.00	30.033 
19:25	77.6	77.6	79.1	54	59.6	0	2	292	0.00	30.033 
19:30	77.4	77.4	78.9	53	58.9	1	3	292	0.00	30.041 
19:35	77.0	77.0	78.7	53	58.5	1	3	292	0.00	30.041 
19:40	76.8	76.8	78.6	54	58.9	1	4	292	0.00	30.041 
19:45	76.7	76.7	78.5	54	58.8	0	1	292	0.00	30.039 
19:50	76.5	76.5	78.4	54	58.6	0	1	292	0.00	30.039 
19:55	76.3	76.3	78.3	54	58.4	0	1	292	0.00	30.039 
20:00	76.1	76.1	78.1	54	58.2	0	1	292	0.00	30.040 
20:05	76.0	76.0	78.1	53	57.6	0	1	292	0.00	30.040 
20:10	75.8	75.8	78.0	54	57.9	0	0	---	0.00	30.040 
20:15	75.6	75.6	77.8	55	58.3	0	0	---	0.00	30.040 
20:20	75.4	75.4	77.7	56	58.6	0	0	---	0.00	30.040 
20:25	75.3	75.3	77.7	56	58.5	0	0	---	0.00	30.040 
20:30	75.1	75.1	77.6	56	58.3	0	0	---	0.00	30.042 
20:35	75.1	75.1	77.6	56	58.3	0	1	270	0.00	30.042 
20:40	75.1	75.1	77.5	57	58.8	0	0	---	0.00	30.042 
20:45	74.9	74.9	74.9	58	59.1	0	0	---	0.00	30.045 
20:50	74.7	74.7	74.7	58	58.9	0	0	---	0.00	30.045 
20:55	74.4	74.4	74.4	58	58.6	0	0	---	0.00	30.045 
21:00	74.0	74.0	74.0	59	58.7	0	0	---	0.00	30.045 
21:05	73.7	73.7	73.7	61	59.4	0	0	---	0.00	30.045 
21:10	73.5	73.5	73.5	62	59.7	0	0	---	0.00	30.045 
21:15	73.2	73.2	73.2	62	59.4	0	0	---	0.00	30.033 
21:20	72.7	72.7	72.7	63	59.4	0	0	---	0.00	30.033 
21:25	72.1	72.1	72.1	63	58.8	0	0	---	0.00	30.033 
21:30	71.8	71.8	71.8	65	59.4	0	0	---	0.00	30.037 
21:35	71.5	71.5	71.5	66	59.5	0	0	---	0.00	30.037 
21:40	71.1	71.1	71.1	66	59.2	0	0	---	0.00	30.037 
21:45	70.8	70.8	70.8	67	59.3	0	0	---	0.00	30.043 
21:50	70.4	70.4	70.4	68	59.3	0	0	---	0.00	30.043 
21:55	70.3	70.3	70.3	69	59.6	0	0	---	0.00	30.043 
22:00	70.1	70.1	70.1	71	60.2	0	0	---	0.00	30.050 
22:05	69.8	69.8	69.8	71	60.0	0	0	---	0.00	30.050 
22:10	69.6	69.6	69.6	71	59.8	0	0	---	0.00	30.050 
22:15	69.4	69.4	69.4	72	60.0	0	0	---	0.00	30.046 
22:20	69.1	69.1	69.1	73	60.1	0	0	---	0.00	30.046 
22:25	68.9	68.9	68.9	73	59.9	0	0	---	0.00	30.046 
22:30	68.8	68.8	68.8	74	60.2	0	0	---	0.00	30.055 
22:35	68.6	68.6	68.6	75	60.3	0	0	---	0.00	30.055 
22:40	68.4	68.4	68.4	75	60.2	0	0	---	0.00	30.055 
22:45	68.4	68.4	68.4	76	60.5	0	0	---	0.00	30.059 
22:50	68.4	68.4	68.4	76	60.5	0	0	---	0.00	30.059 
22:55	68.4	68.4	68.4	76	60.5	0	0	---	0.00	30.059 
23:00	68.4	68.4	68.4	77	60.9	0	0	---	0.00	30.059 
23:05	68.3	68.3	68.3	77	60.8	0	0	---	0.00	30.059 
23:10	68.3	68.3	68.3	77	60.8	0	0	---	0.00	30.059 
23:15	68.3	68.3	68.3	77	60.8	0	0	---	0.00	30.059 
23:20	68.1	68.1	68.1	78	61.0	0	0	---	0.00	30.059 
23:25	68.1	68.1	68.1	78	61.0	0	0	---	0.00	30.059 
23:30	67.9	67.9	67.9	78	60.8	0	0	---	0.00	30.056 
23:35	67.8	67.8	67.8	79	61.0	0	0	---	0.00	30.056 
23:40	67.8	67.8	67.8	79	61.0	0	0	---	0.00	30.056 
23:45	67.6	67.6	67.6	79	60.8	0	0	---	0.00	30.055 
23:50	67.6	67.6	67.6	79	60.8	0	0	---	0.00	30.055 
23:55	67.6	67.6	67.6	79	60.8	0	0	---	0.00	30.055 

CoCoRaHS
IN-AL-39
A2 Web Hosting
Creative Commons License
GoDaddy
search engine by freefind advanced

loaded 2018-11-15 05:04:24 • last modified 2010-11-18 10:43:29
Privacy PolicyDisclaimer
• wx.awcolley.com is powered by PmWiki v.2002016 •
• all content (unless otherwise noted) © 2018 A W Colley